Startpagina
METAR-TAF:

METAR-TAF

Vliegvelden :

Juneau, Alaska, Verenigde Staten

breedte: 58-21-17N, lengte: 134-34-34W, hoogte: 6 m

Actueel weer

Dit bericht is 31 minuten geleden gemaakt, om 19:53 UTC
Wind 13 kt uit het oostzuidoosten met uitschieters tot 21 kt
Temperatuur 6°C
Vochtigheid 36%
Druk 1034 hPa
Zicht: 16.1 km
Onbewolkt

METAR: PAJN 101953Z 11013G21KT 10SM CLR 06/M08 A3052 RMK AO2 SLP335 T00561083

Tijdstip: 12:24 (20:24 UTC)

Verwachting

Dit bericht is 2 uur en het 58 minuten geleden gemaakt, om 17:26 UTC
Verwachting geldig van 10 om 18 UTC tot 11 om 18 UTC
Wind 3 kt uit variabele richting
Zicht: 10 km
Onbewolkt
Van 10 om 2000 UTC
Wind 11 kt uit het zuiden
Zicht: 10 km
Weinig wolken op 4000 ft
Van 11 om 0100 UTC
Wind 9 kt uit het oostzuidoosten
Zicht: 10 km
Onbewolkt

TAF: PAJN 101726Z 1018/1118 VRB03KT P6SM SKC FM102000 18011KT P6SM FEW040 FM110100 11009KT P6SM SKC

Waarnemingen en weersverwachtingen van meer dan 4000 vliegvelden (METAR en TAF).

De beschikbare stations zijn de gele en rode punten op de kaart.

Ga met uw muis naar het station om de naam te zien.

Klik dan om waarnemingen en weersverwachtingen te zien.

kaart wijzigen: klik op de groene knoppen met een zwart kruis om in te zoomen, op de groene knop met een streepje om uit te zoomen of op de groene pijlen voor aangrenzende kaarten.


METAR-TAF: